Terminal Aerodrome Forecast
Issued by NWS

Home | Current Version | Previous Version | Text Only | Print | Product List | Glossary On
Versions: 1 2 3 4 5 6 7 8 9 10 11 12 13 14 15
000
FTUS42 KMLB 012300
TAFSUA
TAF
KSUA 012332Z 0200/0224 11010KT P6SM SCT020 BKN050
     FM020300 11005KT P6SM VCSH SCT020 SCT250
     FM021500 09009KT P6SM VCTS SCT030CB SCT080 SCT250
     FM022100 10011KT P6SM SCT040 BKN080 BKN250=

USA.gov is the U.S. government's official web portal to all federal, state and local government web resources and services.